Mound City, Texas
Current Conditions -  °F | °C
As of 10:35 AM on Wednesday 26 Nov 2014 (Local Time) from KDKR Reporting Station
Clear Clear  
Wind Chill: 64°   Ceiling: Unl
Heat Index: 64°   Visibility: 10mi
Dew Point: 39°   Wind: 16mph
Humidity: 40%   Direction: 240°WSW
Pressure: 30.22"   Gusts: NA
Location:  31.4982°N, 95.4177°W
Report Text: KDKR 261635Z AUTO 24014KT 10SM CLR 18/04 A3022 RMK AO2
Loading
Personal Weather Stations






























Interactive Weather Map New forecast layout! Learn more

10-Day Weather Forecast

Advertisements
Track Severe Weather on mobile